Time;durP1;ratioP1;P1;durP2;ratioP2;P2;SDS_P1;SDS_P2;PMS_P1;PMS_P2;Temp;Humidity;BMP_temperature;BMP_pressure;BME280_temperature;BME280_humidity;BME280_pressure;Samples;Min_cycle;Max_cycle;Signal;HPM_P1;HPM_P2
2022/05/26 00:01:32;;;;;;;13.52;9.15;;;;;;;;;;5039240;28;20876;-83
2022/05/26 00:03:58;;;;;;;16.08;9.00;;;;;;;;;;5039132;28;20787;-82
2022/05/26 00:06:25;;;;;;;10.75;8.23;;;;;;;;;;5036180;28;20435;-84
2022/05/26 00:08:52;;;;;;;14.57;8.95;;;;;;;;;;5039692;28;20420;-82
2022/05/26 00:11:19;;;;;;;13.02;10.63;;;;;;;;;;5039201;28;20522;-82
2022/05/26 00:13:46;;;;;;;17.98;10.70;;;;;;;;;;5041093;28;20427;-81
2022/05/26 00:16:12;;;;;;;13.68;9.90;;;;;;;;;;5038729;28;20439;-82
2022/05/26 00:18:40;;;;;;;11.18;8.98;;;;;;;;;;5036524;28;21073;-84
2022/05/26 00:21:07;;;;;;;14.02;8.77;;;;;;;;;;5036423;28;20461;-82
2022/05/26 00:23:34;;;;;;;11.07;8.50;;;;;;;;;;5040193;28;20458;-82
2022/05/26 00:26:00;;;;;;;12.32;9.70;;;;;;;;;;5041602;28;20427;-82
2022/05/26 00:28:26;;;;;;;12.60;9.90;;;;;;;;;;5037655;28;20462;-81
2022/05/26 00:30:53;;;;;;;12.27;10.03;;;;;;;;;;5038627;28;20419;-86
2022/05/26 00:33:20;;;;;;;13.43;10.85;;;;;;;;;;5040582;28;20455;-82
2022/05/26 00:35:47;;;;;;;14.98;9.80;;;;;;;;;;5042148;28;20438;-83
2022/05/26 00:38:14;;;;;;;12.88;10.18;;;;;;;;;;5041356;28;20994;-81
2022/05/26 00:40:42;;;;;;;12.87;9.47;;;;;;;;;;5041668;28;20435;-83
2022/05/26 00:43:08;;;;;;;12.70;9.20;;;;;;;;;;5044203;28;20422;-83
2022/05/26 00:45:37;;;;;;;12.15;10.30;;;;;;;;;;5043707;28;21028;-82
2022/05/26 00:48:06;;;;;;;13.05;9.20;;;;;;;;;;5042964;28;20423;-81
2022/05/26 00:50:34;;;;;;;13.13;10.55;;;;;;;;;;5045228;28;20664;-82
2022/05/26 00:53:05;;;;;;;17.67;10.60;;;;;;;;;;5042093;28;20418;-84
2022/05/26 00:55:32;;;;;;;14.93;10.90;;;;;;;;;;5041388;28;20427;-83
2022/05/26 00:58:01;;;;;;;11.90;10.67;;;;;;;;;;5039575;28;20445;-82
2022/05/26 01:00:29;;;;;;;13.80;10.65;;;;;;;;;;5040268;28;20423;-82
2022/05/26 01:03:00;;;;;;;16.88;11.43;;;;;;;;;;5041018;28;20426;-82
2022/05/26 01:05:29;;;;;;;13.95;10.98;;;;;;;;;;5039431;28;20425;-82
2022/05/26 01:07:56;;;;;;;14.70;10.65;;;;;;;;;;5071685;23;20422;-88
2022/05/26 01:10:24;;;;;;;15.10;11.27;;;;;;;;;;5025525;28;20432;-86
2022/05/26 01:12:50;;;;;;;13.10;10.00;;;;;;;;;;5030159;28;20436;-85
2022/05/26 01:15:18;;;;;;;16.77;10.50;;;;;;;;;;5028057;28;20430;-85
2022/05/26 01:17:57;;;;;;;16.38;11.82;;;;;;;;;;5028107;28;20439;-85
2022/05/26 01:20:28;;;;;;;14.95;11.30;;;;;;;;;;5008026;28;20416;-84
2022/05/26 01:23:09;;;;;;;12.18;10.00;;;;;;;;;;5006439;28;21145;-85
2022/05/26 01:25:57;;;;;;;13.85;10.27;;;;;;;;;;4975270;28;20440;-84
2022/05/26 01:28:30;;;;;;;14.65;10.93;;;;;;;;;;5006015;28;20435;-85
2022/05/26 01:31:00;;;;;;;14.53;11.60;;;;;;;;;;5004411;28;20430;-85
2022/05/26 01:33:31;;;;;;;14.80;11.00;;;;;;;;;;5007604;28;20866;-86
2022/05/26 01:36:13;;;;;;;12.82;10.98;;;;;;;;;;5007121;28;20455;-84
2022/05/26 01:38:44;;;;;;;13.35;11.15;;;;;;;;;;5002226;28;20438;-85
2022/05/26 01:41:13;;;;;;;13.10;11.13;;;;;;;;;;5007491;28;20442;-86
2022/05/26 01:43:42;;;;;;;12.25;9.80;;;;;;;;;;5005482;28;20432;-85
2022/05/26 01:46:11;;;;;;;13.65;11.85;;;;;;;;;;5006258;28;20863;-84
2022/05/26 01:48:42;;;;;;;13.98;11.70;;;;;;;;;;5007435;28;20434;-86
2022/05/26 01:51:14;;;;;;;13.88;12.10;;;;;;;;;;5008151;28;20503;-84
2022/05/26 01:53:44;;;;;;;12.90;11.60;;;;;;;;;;5006136;28;20492;-84
2022/05/26 01:56:14;;;;;;;14.63;11.52;;;;;;;;;;5005581;28;20957;-84
2022/05/26 01:58:43;;;;;;;17.02;12.20;;;;;;;;;;5004658;28;20601;-85
2022/05/26 02:01:11;;;;;;;14.63;11.40;;;;;;;;;;5006856;28;20436;-86
2022/05/26 02:03:39;;;;;;;14.30;11.10;;;;;;;;;;5004979;28;20444;-86
2022/05/26 02:06:07;;;;;;;12.77;10.90;;;;;;;;;;5003850;28;21013;-84
2022/05/26 02:08:35;;;;;;;13.48;10.95;;;;;;;;;;5006076;28;20431;-85
2022/05/26 02:11:06;;;;;;;15.05;10.70;;;;;;;;;;5006828;28;20441;-84
2022/05/26 02:13:35;;;;;;;13.23;10.45;;;;;;;;;;5004301;28;20436;-84
2022/05/26 02:16:06;;;;;;;15.35;10.82;;;;;;;;;;5003648;28;20438;-85
2022/05/26 02:18:34;;;;;;;13.45;9.80;;;;;;;;;;5005749;28;20434;-85
2022/05/26 02:21:06;;;;;;;11.43;10.23;;;;;;;;;;5004934;28;20434;-85
2022/05/26 02:23:34;;;;;;;14.25;10.20;;;;;;;;;;5002715;28;20425;-84
2022/05/26 02:26:02;;;;;;;12.15;9.30;;;;;;;;;;5005340;28;20465;-84
2022/05/26 02:28:28;;;;;;;12.07;9.73;;;;;;;;;;5003664;28;20428;-84
2022/05/26 02:30:54;;;;;;;14.37;9.53;;;;;;;;;;5005715;28;20420;-85
2022/05/26 02:33:20;;;;;;;12.23;9.10;;;;;;;;;;5004153;28;21293;-85
2022/05/26 02:35:48;;;;;;;11.30;9.00;;;;;;;;;;5007641;28;20438;-86
2022/05/26 02:38:17;;;;;;;10.25;9.10;;;;;;;;;;5005753;28;20426;-85
2022/05/26 02:40:44;;;;;;;11.13;9.35;;;;;;;;;;5010412;28;20552;-84
2022/05/26 02:43:11;;;;;;;11.65;10.00;;;;;;;;;;5004853;28;20485;-83
2022/05/26 02:45:44;;;;;;;14.10;9.90;;;;;;;;;;5004876;28;20525;-87
2022/05/26 02:48:15;;;;;;;13.80;10.57;;;;;;;;;;5005917;28;20438;-84
2022/05/26 02:50:48;;;;;;;15.20;10.35;;;;;;;;;;5004311;28;20443;-83
2022/05/26 02:53:19;;;;;;;12.87;10.20;;;;;;;;;;5005290;28;20649;-83
2022/05/26 02:55:53;;;;;;;17.17;11.05;;;;;;;;;;5004228;28;20442;-84
2022/05/26 02:58:22;;;;;;;13.15;11.27;;;;;;;;;;5006002;28;20457;-86
2022/05/26 03:00:53;;;;;;;11.43;10.18;;;;;;;;;;5003825;28;20866;-85
2022/05/26 03:03:21;;;;;;;14.93;10.90;;;;;;;;;;5004931;28;20425;-84
2022/05/26 03:05:51;;;;;;;13.73;10.57;;;;;;;;;;5004482;28;20837;-85
2022/05/26 03:08:20;;;;;;;11.73;10.27;;;;;;;;;;5006709;28;20483;-85
2022/05/26 03:10:47;;;;;;;12.13;9.90;;;;;;;;;;5007937;28;20471;-86
2022/05/26 03:13:14;;;;;;;14.45;10.30;;;;;;;;;;5002776;28;20422;-84
2022/05/26 03:15:40;;;;;;;14.15;10.50;;;;;;;;;;5005590;28;20442;-85
2022/05/26 03:18:07;;;;;;;15.13;10.73;;;;;;;;;;5005439;28;20427;-84
2022/05/26 03:20:33;;;;;;;15.18;10.85;;;;;;;;;;5001775;28;20864;-84
2022/05/26 03:22:59;;;;;;;15.10;10.32;;;;;;;;;;5003976;28;20490;-86
2022/05/26 03:25:27;;;;;;;11.95;10.57;;;;;;;;;;5002279;28;20432;-85
2022/05/26 03:27:53;;;;;;;11.40;10.20;;;;;;;;;;5002848;28;20516;-84
2022/05/26 03:30:20;;;;;;;14.70;10.80;;;;;;;;;;5003841;28;21180;-85
2022/05/26 03:32:46;;;;;;;13.23;10.37;;;;;;;;;;5003625;28;20425;-85
2022/05/26 03:40:51;;;;;;;14.48;10.60;;;;;;;;;;5003309;28;20513;-86
2022/05/26 03:43:18;;;;;;;13.30;9.68;;;;;;;;;;5000606;28;21036;-85
2022/05/26 03:45:45;;;;;;;13.65;10.30;;;;;;;;;;5003881;28;20469;-84
2022/05/26 03:48:11;;;;;;;14.60;9.80;;;;;;;;;;5001371;28;20489;-84
2022/05/26 03:50:37;;;;;;;15.13;10.48;;;;;;;;;;5005558;28;20437;-84
2022/05/26 03:53:04;;;;;;;13.40;10.13;;;;;;;;;;5001608;28;20460;-84
2022/05/26 03:55:30;;;;;;;15.13;10.60;;;;;;;;;;5001948;28;20448;-85
2022/05/26 03:57:59;;;;;;;13.57;10.20;;;;;;;;;;5005508;28;20430;-85
2022/05/26 04:00:25;;;;;;;13.48;10.82;;;;;;;;;;5002831;28;20432;-85
2022/05/26 04:02:52;;;;;;;17.35;11.15;;;;;;;;;;5001576;28;20438;-83
2022/05/26 04:05:19;;;;;;;15.00;10.60;;;;;;;;;;5004343;28;20855;-85
2022/05/26 04:07:45;;;;;;;19.35;12.32;;;;;;;;;;5002834;28;20438;-83
2022/05/26 04:10:12;;;;;;;20.25;11.80;;;;;;;;;;5001687;28;20436;-85
2022/05/26 04:12:39;;;;;;;17.65;10.80;;;;;;;;;;5005495;28;20770;-84
2022/05/26 04:15:07;;;;;;;14.93;11.13;;;;;;;;;;4999866;28;20842;-84
2022/05/26 04:17:34;;;;;;;18.52;12.20;;;;;;;;;;5003035;28;20429;-84
2022/05/26 04:20:03;;;;;;;19.30;11.90;;;;;;;;;;5001426;28;20430;-84
2022/05/26 04:22:30;;;;;;;17.42;11.95;;;;;;;;;;5000799;28;20981;-85
2022/05/26 04:24:57;;;;;;;16.60;11.40;;;;;;;;;;5004436;28;20457;-84
2022/05/26 04:27:25;;;;;;;14.40;11.18;;;;;;;;;;5005238;28;20471;-85
2022/05/26 04:29:52;;;;;;;16.52;10.35;;;;;;;;;;5002916;28;20436;-87
2022/05/26 04:32:21;;;;;;;15.37;11.00;;;;;;;;;;5002953;28;20413;-84
2022/05/26 04:34:48;;;;;;;18.25;11.30;;;;;;;;;;5006530;28;20465;-86
2022/05/26 04:37:14;;;;;;;18.08;10.80;;;;;;;;;;5006323;28;20410;-86
2022/05/26 04:39:41;;;;;;;18.70;11.35;;;;;;;;;;5004703;28;20803;-85
2022/05/26 04:42:08;;;;;;;20.77;11.82;;;;;;;;;;5001935;28;20417;-85
2022/05/26 04:44:36;;;;;;;18.70;10.82;;;;;;;;;;5007087;28;20440;-85
2022/05/26 04:47:02;;;;;;;19.27;10.55;;;;;;;;;;5007284;28;20459;-85
2022/05/26 04:49:30;;;;;;;21.80;12.35;;;;;;;;;;5006909;28;20947;-85
2022/05/26 04:51:57;;;;;;;21.55;11.70;;;;;;;;;;5002461;28;20440;-84
2022/05/26 04:54:23;;;;;;;22.80;12.10;;;;;;;;;;5003442;28;20442;-84
2022/05/26 04:56:50;;;;;;;24.90;12.00;;;;;;;;;;5003789;28;20433;-86
2022/05/26 04:59:16;;;;;;;19.35;12.88;;;;;;;;;;5004760;28;20520;-88
2022/05/26 05:01:42;;;;;;;20.98;14.40;;;;;;;;;;5005207;28;20440;-84
2022/05/26 05:04:09;;;;;;;26.75;14.85;;;;;;;;;;5005431;28;20435;-85
2022/05/26 05:06:37;;;;;;;17.10;11.90;;;;;;;;;;5004834;28;20463;-85
2022/05/26 05:09:04;;;;;;;21.75;13.90;;;;;;;;;;5003650;28;20434;-86
2022/05/26 05:11:30;;;;;;;23.50;13.63;;;;;;;;;;5007114;28;20429;-84
2022/05/26 05:13:56;;;;;;;21.67;13.65;;;;;;;;;;5005882;28;20441;-85
2022/05/26 05:16:26;;;;;;;24.20;14.03;;;;;;;;;;5004472;28;20494;-86
2022/05/26 05:18:53;;;;;;;24.95;13.25;;;;;;;;;;5002667;28;20457;-85
2022/05/26 05:21:22;;;;;;;25.50;13.32;;;;;;;;;;4999367;28;20661;-85
2022/05/26 05:23:52;;;;;;;24.23;13.45;;;;;;;;;;5006599;28;20439;-85
2022/05/26 05:26:20;;;;;;;21.75;13.38;;;;;;;;;;5009188;28;20454;-86
2022/05/26 05:28:49;;;;;;;25.87;14.23;;;;;;;;;;5006428;28;20425;-87
2022/05/26 05:31:18;;;;;;;19.83;12.70;;;;;;;;;;5008652;28;20462;-85
2022/05/26 05:33:46;;;;;;;21.10;13.17;;;;;;;;;;5005311;28;20439;-85
2022/05/26 05:36:13;;;;;;;22.48;12.45;;;;;;;;;;5007885;28;20438;-86
2022/05/26 05:38:40;;;;;;;22.92;12.27;;;;;;;;;;5008759;28;20449;-86
2022/05/26 05:41:08;;;;;;;20.50;11.57;;;;;;;;;;5008295;28;20424;-85
2022/05/26 05:43:36;;;;;;;22.60;11.27;;;;;;;;;;5015677;28;20409;-86
2022/05/26 05:46:02;;;;;;;22.67;10.68;;;;;;;;;;5008281;28;20437;-85
2022/05/26 05:48:29;;;;;;;25.48;12.30;;;;;;;;;;5011008;28;20862;-85
2022/05/26 05:50:55;;;;;;;24.35;10.70;;;;;;;;;;5013140;28;20919;-85
2022/05/26 05:53:22;;;;;;;25.53;11.23;;;;;;;;;;5006346;28;20457;-85
2022/05/26 05:55:48;;;;;;;19.08;9.82;;;;;;;;;;5009410;28;20417;-87
2022/05/26 05:58:16;;;;;;;26.52;10.05;;;;;;;;;;5010068;28;20444;-85
2022/05/26 06:00:42;;;;;;;19.58;9.07;;;;;;;;;;5009626;28;20494;-84
2022/05/26 06:03:09;;;;;;;19.05;9.27;;;;;;;;;;5008638;28;20429;-87
2022/05/26 06:05:37;;;;;;;19.80;8.32;;;;;;;;;;5013202;28;20429;-86
2022/05/26 06:08:04;;;;;;;17.23;7.55;;;;;;;;;;5010353;28;20443;-84
2022/05/26 06:10:31;;;;;;;18.67;7.68;;;;;;;;;;5008798;28;20517;-85
2022/05/26 06:12:57;;;;;;;18.10;6.97;;;;;;;;;;5008855;28;20457;-85
2022/05/26 06:15:25;;;;;;;13.27;6.25;;;;;;;;;;5010160;28;20422;-86
2022/05/26 06:17:52;;;;;;;16.35;5.90;;;;;;;;;;5009968;28;20434;-86
2022/05/26 06:20:18;;;;;;;12.93;5.33;;;;;;;;;;5010187;28;20513;-87
2022/05/26 06:22:45;;;;;;;14.30;5.13;;;;;;;;;;5007461;28;20423;-85
2022/05/26 06:25:12;;;;;;;16.13;5.07;;;;;;;;;;5003857;28;20436;-85
2022/05/26 06:30:23;;;;;;;11.10;4.80;;;;;;;;;;5002352;28;20993;-83
2022/05/26 06:38:20;;;;;;;15.15;4.55;;;;;;;;;;5007254;28;20502;-87
2022/05/26 06:40:47;;;;;;;8.52;3.63;;;;;;;;;;5010100;28;20452;-86
2022/05/26 06:43:14;;;;;;;11.45;3.80;;;;;;;;;;5006279;28;20425;-85
2022/05/26 06:45:41;;;;;;;9.15;3.28;;;;;;;;;;5009107;28;20504;-86
2022/05/26 06:48:09;;;;;;;9.05;3.38;;;;;;;;;;5005114;28;20992;-85
2022/05/26 06:50:35;;;;;;;10.25;3.40;;;;;;;;;;5005176;28;20459;-85
2022/05/26 06:53:02;;;;;;;10.48;3.30;;;;;;;;;;5006095;28;20481;-84
2022/05/26 06:55:28;;;;;;;8.43;3.60;;;;;;;;;;5007845;28;20453;-88
2022/05/26 06:57:55;;;;;;;11.80;3.08;;;;;;;;;;5003910;28;20452;-85
2022/05/26 07:00:21;;;;;;;8.75;3.20;;;;;;;;;;5011661;28;20434;-85
2022/05/26 07:02:47;;;;;;;10.50;2.58;;;;;;;;;;5009835;28;20426;-86
2022/05/26 07:05:15;;;;;;;8.73;2.80;;;;;;;;;;5011182;28;20483;-84
2022/05/26 07:07:42;;;;;;;9.15;3.20;;;;;;;;;;5007557;28;20814;-86
2022/05/26 07:10:09;;;;;;;9.33;2.80;;;;;;;;;;5027500;22;20445;-79
2022/05/26 07:12:35;;;;;;;8.70;2.70;;;;;;;;;;5049159;28;20467;-80
2022/05/26 07:15:03;;;;;;;9.48;3.00;;;;;;;;;;5045756;28;20533;-82
2022/05/26 07:17:29;;;;;;;6.43;2.50;;;;;;;;;;5047063;28;20516;-80
2022/05/26 07:19:56;;;;;;;9.13;2.65;;;;;;;;;;5044823;28;20435;-79
2022/05/26 07:22:24;;;;;;;11.85;3.30;;;;;;;;;;5048793;28;20418;-79
2022/05/26 07:24:51;;;;;;;11.15;2.88;;;;;;;;;;5045475;28;20803;-81
2022/05/26 07:27:18;;;;;;;7.70;2.50;;;;;;;;;;5049591;28;20417;-78
2022/05/26 07:29:44;;;;;;;8.52;2.35;;;;;;;;;;5047627;28;20516;-78
2022/05/26 07:32:10;;;;;;;8.10;2.60;;;;;;;;;;5049191;28;20417;-80
2022/05/26 07:34:36;;;;;;;12.18;3.00;;;;;;;;;;5049461;28;20815;-80
2022/05/26 07:42:33;;;;;;;7.00;2.00;;;;;;;;;;5045332;28;20502;-81
2022/05/26 07:45:00;;;;;;;7.82;2.10;;;;;;;;;;5043498;28;20898;-78
2022/05/26 07:47:27;;;;;;;4.88;2.08;;;;;;;;;;5046027;28;20413;-78
2022/05/26 07:49:54;;;;;;;4.88;2.40;;;;;;;;;;5048169;28;20491;-80
2022/05/26 07:52:21;;;;;;;7.20;2.30;;;;;;;;;;5049241;28;20468;-81
2022/05/26 07:54:48;;;;;;;6.55;1.80;;;;;;;;;;5044302;28;20447;-81
2022/05/26 07:57:19;;;;;;;5.82;2.20;;;;;;;;;;5050072;28;20418;-78
2022/05/26 07:59:45;;;;;;;5.60;2.00;;;;;;;;;;5044048;28;20436;-80
2022/05/26 08:02:12;;;;;;;4.97;1.83;;;;;;;;;;5047390;28;20458;-79
2022/05/26 08:04:39;;;;;;;6.75;2.00;;;;;;;;;;5043550;28;20501;-79
2022/05/26 08:07:05;;;;;;;4.82;1.80;;;;;;;;;;5049083;28;20422;-81
2022/05/26 08:09:31;;;;;;;8.75;2.40;;;;;;;;;;5047160;28;20859;-79
2022/05/26 08:11:59;;;;;;;5.00;1.80;;;;;;;;;;5047412;28;20409;-79
2022/05/26 08:14:25;;;;;;;6.45;1.98;;;;;;;;;;5047222;28;20432;-77
2022/05/26 08:16:51;;;;;;;7.93;1.63;;;;;;;;;;5043655;28;20417;-78
2022/05/26 08:19:18;;;;;;;4.00;1.60;;;;;;;;;;5044050;28;20465;-78
2022/05/26 08:21:44;;;;;;;5.68;1.80;;;;;;;;;;5046048;28;20413;-79
2022/05/26 08:24:10;;;;;;;7.25;1.75;;;;;;;;;;5048341;28;20425;-80
2022/05/26 08:26:37;;;;;;;6.05;1.77;;;;;;;;;;5048432;28;20425;-79
2022/05/26 08:29:04;;;;;;;7.35;1.90;;;;;;;;;;5046799;28;20494;-81
2022/05/26 08:31:31;;;;;;;7.57;1.88;;;;;;;;;;5045898;28;20429;-81
2022/05/26 08:33:57;;;;;;;5.70;1.80;;;;;;;;;;5047771;28;20421;-79
2022/05/26 08:36:24;;;;;;;5.80;1.60;;;;;;;;;;5047228;28;20471;-81
2022/05/26 08:38:50;;;;;;;5.05;1.58;;;;;;;;;;5045390;28;20433;-80
2022/05/26 08:41:19;;;;;;;5.63;1.50;;;;;;;;;;5047864;28;20845;-80
2022/05/26 08:43:46;;;;;;;6.20;1.60;;;;;;;;;;5048186;28;20968;-80
2022/05/26 08:46:17;;;;;;;3.33;1.55;;;;;;;;;;5045124;28;20441;-80
2022/05/26 08:48:48;;;;;;;5.07;1.80;;;;;;;;;;5049042;28;20542;-80
2022/05/26 08:51:22;;;;;;;4.70;1.30;;;;;;;;;;5047418;28;20519;-80
2022/05/26 08:53:51;;;;;;;4.70;1.50;;;;;;;;;;5043105;28;20417;-79
2022/05/26 08:56:21;;;;;;;3.90;1.40;;;;;;;;;;5052724;28;20417;-79
2022/05/26 08:58:49;;;;;;;5.45;1.20;;;;;;;;;;5049585;28;20556;-81
2022/05/26 09:01:19;;;;;;;7.03;1.50;;;;;;;;;;5052374;28;20461;-79
2022/05/26 09:03:45;;;;;;;5.07;1.40;;;;;;;;;;5049452;28;20417;-79
2022/05/26 09:06:12;;;;;;;3.92;1.15;;;;;;;;;;5049867;28;20503;-79
2022/05/26 09:14:22;;;;;;;5.03;1.40;;;;;;;;;;4983121;28;20455;-80
2022/05/26 09:16:50;;;;;;;4.80;1.45;;;;;;;;;;5032773;28;20439;-81
2022/05/26 09:19:18;;;;;;;5.43;1.70;;;;;;;;;;5049608;28;20918;-80
2022/05/26 09:21:45;;;;;;;3.42;1.00;;;;;;;;;;5049726;28;20416;-79
2022/05/26 09:24:26;;;;;;;4.60;1.70;;;;;;;;;;5051188;28;20440;-80
2022/05/26 09:26:54;;;;;;;3.90;1.60;;;;;;;;;;5049426;28;20418;-81
2022/05/26 09:29:23;;;;;;;3.58;1.25;;;;;;;;;;5052167;28;20448;-80
2022/05/26 09:31:50;;;;;;;4.75;1.40;;;;;;;;;;5048071;28;20417;-80
2022/05/26 09:34:18;;;;;;;4.78;1.70;;;;;;;;;;5047706;28;20491;-79
2022/05/26 09:36:45;;;;;;;3.55;1.40;;;;;;;;;;5044009;28;20406;-78
2022/05/26 09:39:12;;;;;;;5.25;1.20;;;;;;;;;;5044017;28;20471;-80
2022/05/26 09:41:39;;;;;;;5.20;1.42;;;;;;;;;;5047970;28;20460;-79
2022/05/26 09:44:16;;;;;;;3.55;1.30;;;;;;;;;;5045431;28;20439;-80
2022/05/26 09:46:48;;;;;;;6.50;1.45;;;;;;;;;;5047839;28;20497;-79
2022/05/26 09:49:16;;;;;;;3.83;1.10;;;;;;;;;;5046238;28;20452;-81
2022/05/26 09:51:43;;;;;;;3.78;1.30;;;;;;;;;;5049104;28;20416;-79
2022/05/26 09:54:20;;;;;;;4.90;1.30;;;;;;;;;;5046916;28;20443;-78
2022/05/26 09:56:47;;;;;;;3.10;1.20;;;;;;;;;;5046071;28;20495;-77
2022/05/26 09:59:22;;;;;;;5.30;1.40;;;;;;;;;;5048087;28;20433;-78
2022/05/26 10:01:49;;;;;;;4.20;1.20;;;;;;;;;;5046055;28;20472;-77
2022/05/26 10:04:26;;;;;;;3.38;1.20;;;;;;;;;;5048799;28;20490;-80
2022/05/26 10:06:55;;;;;;;3.38;1.17;;;;;;;;;;5049661;28;20508;-78
2022/05/26 10:09:25;;;;;;;4.50;1.00;;;;;;;;;;5041216;28;20931;-78
2022/05/26 10:11:57;;;;;;;2.15;1.10;;;;;;;;;;5049226;28;20425;-78
2022/05/26 10:14:32;;;;;;;3.43;1.10;;;;;;;;;;5047411;28;20429;-79
2022/05/26 10:16:59;;;;;;;4.33;1.53;;;;;;;;;;5046930;28;20421;-78
2022/05/26 10:19:37;;;;;;;5.28;1.13;;;;;;;;;;5048593;28;20420;-78
2022/05/26 10:22:10;;;;;;;3.10;1.10;;;;;;;;;;5048144;28;20469;-77
2022/05/26 10:24:49;;;;;;;2.53;1.55;;;;;;;;;;5045996;28;20433;-78
2022/05/26 10:27:20;;;;;;;3.53;1.00;;;;;;;;;;5046963;28;20429;-78
2022/05/26 10:29:57;;;;;;;2.75;1.02;;;;;;;;;;5048168;28;20429;-80
2022/05/26 10:32:27;;;;;;;2.05;1.00;;;;;;;;;;5045450;28;20421;-81
2022/05/26 10:35:08;;;;;;;3.40;1.30;;;;;;;;;;5046492;28;20520;-78
2022/05/26 10:37:42;;;;;;;3.20;1.10;;;;;;;;;;5048321;28;20413;-79
2022/05/26 10:40:15;;;;;;;4.80;1.70;;;;;;;;;;5045578;28;20479;-78
2022/05/26 10:42:43;;;;;;;4.70;1.40;;;;;;;;;;5046580;28;20430;-81
2022/05/26 10:45:13;;;;;;;2.80;1.20;;;;;;;;;;5048056;28;20516;-80
2022/05/26 10:47:42;;;;;;;4.43;1.60;;;;;;;;;;5044936;28;20490;-81
2022/05/26 10:50:16;;;;;;;2.03;1.10;;;;;;;;;;5044592;28;20433;-80
2022/05/26 10:52:45;;;;;;;2.72;1.10;;;;;;;;;;5046573;28;20452;-77
2022/05/26 10:55:12;;;;;;;2.50;1.17;;;;;;;;;;5040037;28;20429;-78
2022/05/26 10:57:43;;;;;;;2.30;1.30;;;;;;;;;;5044686;28;20421;-79
2022/05/26 11:00:11;;;;;;;3.20;1.17;;;;;;;;;;5044267;28;20440;-78
2022/05/26 11:02:42;;;;;;;2.20;1.10;;;;;;;;;;5045616;28;20426;-78
2022/05/26 11:05:09;;;;;;;2.35;1.17;;;;;;;;;;5041441;28;20516;-79
2022/05/26 11:07:40;;;;;;;2.63;1.30;;;;;;;;;;5044531;28;20568;-80
2022/05/26 11:10:08;;;;;;;3.65;1.20;;;;;;;;;;5039253;28;20437;-78
2022/05/26 11:12:36;;;;;;;2.70;0.98;;;;;;;;;;5044310;28;20590;-78
2022/05/26 11:17:52;;;;;;;4.77;1.20;;;;;;;;;;5043773;28;20799;-78
2022/05/26 11:20:20;;;;;;;3.20;1.20;;;;;;;;;;5044576;28;20499;-80
2022/05/26 11:22:48;;;;;;;3.80;1.00;;;;;;;;;;5043345;28;20838;-78
2022/05/26 11:25:16;;;;;;;5.35;1.20;;;;;;;;;;5046345;28;20429;-78
2022/05/26 11:27:45;;;;;;;4.65;1.50;;;;;;;;;;5043509;28;20428;-77
2022/05/26 11:36:07;;;;;;;4.03;1.30;;;;;;;;;;5045930;28;20437;-78
2022/05/26 11:38:32;;;;;;;3.63;1.20;;;;;;;;;;5043473;28;20505;-79
2022/05/26 11:41:03;;;;;;;4.78;1.35;;;;;;;;;;5043254;28;20461;-79
2022/05/26 11:43:33;;;;;;;2.67;1.20;;;;;;;;;;5041211;28;20520;-78
2022/05/26 11:46:00;;;;;;;3.60;1.30;;;;;;;;;;5037757;28;20436;-79
2022/05/26 11:48:40;;;;;;;1.88;0.90;;;;;;;;;;5042489;28;20475;-78
2022/05/26 11:51:25;;;;;;;4.60;1.10;;;;;;;;;;5040006;28;20435;-78
2022/05/26 11:53:53;;;;;;;5.75;0.93;;;;;;;;;;5045189;28;20417;-77
2022/05/26 11:56:38;;;;;;;4.78;1.30;;;;;;;;;;5042752;28;20433;-78
2022/05/26 11:59:37;;;;;;;6.28;1.42;;;;;;;;;;5045084;28;20446;-78
2022/05/26 12:02:25;;;;;;;5.38;1.40;;;;;;;;;;5038221;28;20484;-79
2022/05/26 12:04:51;;;;;;;3.58;1.20;;;;;;;;;;5040295;28;20429;-82
2022/05/26 12:07:35;;;;;;;3.97;1.20;;;;;;;;;;5045192;28;20455;-79
2022/05/26 12:10:14;;;;;;;3.40;1.40;;;;;;;;;;5045947;28;20474;-80
2022/05/26 12:12:40;;;;;;;5.17;1.30;;;;;;;;;;5047387;28;20429;-78
2022/05/26 12:15:15;;;;;;;2.88;1.10;;;;;;;;;;5047309;28;20434;-79
2022/05/26 12:17:42;;;;;;;4.57;1.20;;;;;;;;;;5045995;28;20425;-80
2022/05/26 12:20:24;;;;;;;3.70;1.20;;;;;;;;;;5048576;28;20432;-79
2022/05/26 12:23:06;;;;;;;2.78;1.13;;;;;;;;;;5047174;28;20425;-82
2022/05/26 12:25:34;;;;;;;4.45;1.45;;;;;;;;;;5048478;28;20484;-80
2022/05/26 12:28:02;;;;;;;5.80;1.65;;;;;;;;;;5047179;28;20512;-79
2022/05/26 12:30:37;;;;;;;2.47;1.13;;;;;;;;;;5047645;28;20449;-82
2022/05/26 12:33:12;;;;;;;2.35;1.13;;;;;;;;;;5050698;28;20434;-80
2022/05/26 12:35:44;;;;;;;3.63;1.50;;;;;;;;;;5053208;28;20425;-79
2022/05/26 12:38:18;;;;;;;4.40;1.10;;;;;;;;;;5051623;28;20849;-79
2022/05/26 12:40:53;;;;;;;4.20;1.10;;;;;;;;;;5053163;28;20409;-79
2022/05/26 12:43:30;;;;;;;3.50;1.40;;;;;;;;;;5052603;28;20417;-80
2022/05/26 12:46:01;;;;;;;5.10;1.40;;;;;;;;;;5052933;28;20433;-80
2022/05/26 12:48:50;;;;;;;4.53;1.60;;;;;;;;;;5050352;28;20425;-81
2022/05/26 12:51:17;;;;;;;2.92;1.20;;;;;;;;;;5051763;28;20491;-81
2022/05/26 12:53:47;;;;;;;4.20;1.10;;;;;;;;;;5051016;28;20852;-79
2022/05/26 12:56:15;;;;;;;3.95;1.40;;;;;;;;;;5053371;28;20420;-77
2022/05/26 12:58:45;;;;;;;2.50;1.00;;;;;;;;;;5052296;28;20980;-79
2022/05/26 13:01:12;;;;;;;2.17;1.00;;;;;;;;;;5050734;28;20457;-79
2022/05/26 13:03:40;;;;;;;1.65;1.08;;;;;;;;;;5050639;28;21004;-80
2022/05/26 13:06:08;;;;;;;6.47;1.63;;;;;;;;;;5050918;28;20433;-79
2022/05/26 13:08:43;;;;;;;4.07;1.10;;;;;;;;;;5051890;28;20476;-79
2022/05/26 13:11:13;;;;;;;3.00;1.10;;;;;;;;;;5060380;23;20503;-79
2022/05/26 13:13:42;;;;;;;3.20;1.20;;;;;;;;;;5057620;28;20494;-78
2022/05/26 13:16:35;;;;;;;3.00;1.40;;;;;;;;;;5058677;28;20903;-79
2022/05/26 13:19:10;;;;;;;4.22;1.17;;;;;;;;;;4999604;28;20417;-79
2022/05/26 13:21:36;;;;;;;3.38;1.20;;;;;;;;;;5055582;28;20452;-81
2022/05/26 13:24:03;;;;;;;5.30;1.20;;;;;;;;;;5054092;28;20432;-78
2022/05/26 13:26:29;;;;;;;2.20;1.27;;;;;;;;;;5057934;28;20423;-78
2022/05/26 13:29:01;;;;;;;3.60;1.10;;;;;;;;;;5054549;28;20484;-79
2022/05/26 13:34:12;;;;;;;4.10;1.42;;;;;;;;;;5058961;28;20759;-78
2022/05/26 13:36:40;;;;;;;2.28;1.38;;;;;;;;;;5059259;28;20444;-79
2022/05/26 13:39:08;;;;;;;1.58;1.30;;;;;;;;;;5052614;28;20949;-78
2022/05/26 13:41:34;;;;;;;3.35;1.30;;;;;;;;;;5056624;28;20433;-78
2022/05/26 13:44:04;;;;;;;4.10;1.60;;;;;;;;;;5058052;28;20415;-81
2022/05/26 13:46:32;;;;;;;5.82;1.38;;;;;;;;;;5071987;28;20791;-81
2022/05/26 13:48:59;;;;;;;5.07;1.50;;;;;;;;;;5070072;28;20433;-81
2022/05/26 13:51:38;;;;;;;3.92;1.60;;;;;;;;;;5060102;28;20437;-82
2022/05/26 13:54:21;;;;;;;7.13;2.10;;;;;;;;;;5067503;28;20429;-81
2022/05/26 13:56:48;;;;;;;2.95;1.50;;;;;;;;;;5066728;28;20411;-82
2022/05/26 13:59:16;;;;;;;6.40;1.90;;;;;;;;;;5066839;28;20445;-79
2022/05/26 14:01:49;;;;;;;3.95;1.88;;;;;;;;;;5064758;28;20411;-80
2022/05/26 14:04:21;;;;;;;6.30;2.03;;;;;;;;;;5059904;28;20513;-79
2022/05/26 14:06:47;;;;;;;2.70;1.58;;;;;;;;;;5064412;28;20412;-79
2022/05/26 14:09:24;;;;;;;6.60;2.10;;;;;;;;;;5059038;28;20433;-80
2022/05/26 14:12:03;;;;;;;2.38;1.80;;;;;;;;;;5063326;28;20450;-80
2022/05/26 14:14:31;;;;;;;3.10;1.80;;;;;;;;;;5063124;28;20420;-79
2022/05/26 14:16:58;;;;;;;3.80;1.90;;;;;;;;;;5062039;28;20411;-80
2022/05/26 14:19:27;;;;;;;5.55;1.98;;;;;;;;;;5062023;28;20417;-78
2022/05/26 14:21:53;;;;;;;5.40;1.80;;;;;;;;;;5062931;28;20471;-77
2022/05/26 14:24:22;;;;;;;4.00;1.95;;;;;;;;;;5062012;28;20476;-81
2022/05/26 14:26:59;;;;;;;5.10;1.90;;;;;;;;;;5059128;28;20425;-80
2022/05/26 14:29:36;;;;;;;2.92;1.85;;;;;;;;;;5062499;28;20922;-79
2022/05/26 14:32:09;;;;;;;4.37;2.20;;;;;;;;;;5062922;28;20433;-79
2022/05/26 14:34:37;;;;;;;5.43;2.00;;;;;;;;;;5062585;28;20559;-79
2022/05/26 14:37:04;;;;;;;3.80;2.00;;;;;;;;;;5061782;28;20620;-77
2022/05/26 14:39:30;;;;;;;4.03;2.17;;;;;;;;;;5055893;28;20434;-77
2022/05/26 14:41:58;;;;;;;5.50;2.10;;;;;;;;;;5056908;28;21181;-78
2022/05/26 14:44:24;;;;;;;3.90;2.10;;;;;;;;;;5059471;28;20917;-80
2022/05/26 14:46:52;;;;;;;4.97;1.95;;;;;;;;;;5055760;28;20419;-79
2022/05/26 14:49:18;;;;;;;5.25;2.50;;;;;;;;;;5061293;28;20413;-78
2022/05/26 14:51:46;;;;;;;3.85;2.20;;;;;;;;;;5055995;28;20421;-78
2022/05/26 14:56:57;;;;;;;5.60;1.90;;;;;;;;;;5058216;28;20417;-78
2022/05/26 14:59:23;;;;;;;3.53;2.00;;;;;;;;;;5057235;28;20418;-79
2022/05/26 15:01:49;;;;;;;3.22;1.80;;;;;;;;;;5054338;28;20829;-77
2022/05/26 15:04:17;;;;;;;5.18;2.28;;;;;;;;;;5056827;28;20421;-78
2022/05/26 15:06:44;;;;;;;3.90;2.00;;;;;;;;;;5057755;28;20415;-79
2022/05/26 15:09:11;;;;;;;6.40;2.10;;;;;;;;;;5053619;28;20434;-79
2022/05/26 15:11:40;;;;;;;4.85;1.80;;;;;;;;;;5057063;28;20417;-78
2022/05/26 15:14:06;;;;;;;6.28;1.90;;;;;;;;;;5056528;28;20453;-78
2022/05/26 15:16:32;;;;;;;2.85;1.60;;;;;;;;;;5057328;28;20962;-80
2022/05/26 15:18:59;;;;;;;3.87;1.87;;;;;;;;;;5054502;28;20431;-78
2022/05/26 15:21:27;;;;;;;4.68;2.10;;;;;;;;;;5054478;28;20884;-79
2022/05/26 15:23:53;;;;;;;3.77;1.80;;;;;;;;;;5053506;28;20429;-79